createdAt,value
2018-01-14T00:01:07.675Z,1.10
2018-01-14T00:03:36.164Z,1.10
2018-01-14T00:06:04.647Z,1.10
2018-01-14T00:08:33.185Z,1.10
2018-01-14T00:11:01.706Z,1.00
2018-01-14T00:13:30.195Z,1.00
2018-01-14T00:15:58.728Z,1.00
2018-01-14T00:18:27.247Z,0.90
2018-01-14T00:20:55.800Z,0.80
2018-01-14T00:23:24.261Z,0.80
2018-01-14T00:25:52.723Z,0.80
2018-01-14T00:28:21.260Z,0.80
2018-01-14T00:30:49.781Z,0.80
2018-01-14T00:33:19.107Z,0.90
2018-01-14T00:35:48.372Z,0.90
2018-01-14T00:38:18.384Z,1.00
2018-01-14T00:40:48.403Z,0.90
2018-01-14T00:43:17.995Z,0.90
2018-01-14T00:45:48.172Z,0.90
2018-01-14T00:48:17.456Z,0.90
2018-01-14T00:50:45.974Z,0.90
2018-01-14T00:53:14.501Z,0.80
2018-01-14T00:55:42.971Z,0.70
2018-01-14T00:58:11.497Z,0.70
2018-01-14T01:00:39.995Z,0.70
2018-01-14T01:03:08.476Z,0.70
2018-01-14T01:05:36.984Z,0.70
2018-01-14T01:08:06.247Z,0.70
2018-01-14T01:10:34.771Z,0.70
2018-01-14T01:13:04.024Z,0.60
2018-01-14T01:15:32.529Z,0.60
2018-01-14T01:18:01.798Z,0.60
2018-01-14T01:20:30.350Z,0.60
2018-01-14T01:22:58.868Z,0.60
2018-01-14T01:25:27.338Z,0.60
2018-01-14T01:27:55.868Z,0.50
2018-01-14T01:30:25.154Z,0.70
2018-01-14T01:32:54.446Z,0.80
2018-01-14T01:35:22.968Z,0.80
2018-01-14T01:37:51.511Z,0.70
2018-01-14T01:40:20.761Z,0.80
2018-01-14T01:42:48.957Z,0.80
2018-01-14T01:45:17.707Z,0.70
2018-01-14T01:47:46.863Z,0.70
2018-01-14T01:50:16.194Z,0.60
2018-01-14T01:52:44.709Z,0.60
2018-01-14T01:55:13.197Z,0.50
2018-01-14T01:57:41.748Z,0.50
2018-01-14T02:00:10.251Z,0.50
2018-01-14T02:02:39.709Z,0.60
2018-01-14T02:05:08.242Z,0.60
2018-01-14T02:07:36.722Z,0.60
2018-01-14T02:10:05.265Z,0.70
2018-01-14T02:12:33.739Z,0.70
2018-01-14T02:15:02.210Z,0.70
2018-01-14T02:17:30.773Z,0.60
2018-01-14T02:19:59.362Z,0.50
2018-01-14T02:22:29.724Z,0.50
2018-01-14T02:24:58.237Z,0.50
2018-01-14T02:27:26.757Z,0.60
2018-01-14T02:29:55.248Z,0.60
2018-01-14T02:32:24.735Z,0.70
2018-01-14T02:34:54.029Z,0.70
2018-01-14T02:37:23.295Z,0.60
2018-01-14T02:39:51.818Z,0.60
2018-01-14T02:42:21.361Z,0.70
2018-01-14T02:44:49.830Z,0.70
2018-01-14T02:47:18.340Z,0.50
2018-01-14T02:49:46.866Z,0.60
2018-01-14T02:52:17.919Z,0.60
2018-01-14T02:54:46.466Z,0.60
2018-01-14T02:57:16.954Z,0.60
2018-01-14T02:59:46.111Z,0.60
2018-01-14T03:02:16.259Z,0.60
2018-01-14T03:04:44.787Z,0.60
2018-01-14T03:07:13.289Z,0.50
2018-01-14T03:09:41.810Z,0.30
2018-01-14T03:12:10.486Z,0.30
2018-01-14T03:14:39.006Z,0.30
2018-01-14T03:17:07.487Z,0.30
2018-01-14T03:19:36.454Z,0.30
2018-01-14T03:22:04.990Z,0.30
2018-01-14T03:24:33.514Z,0.30
2018-01-14T03:27:01.982Z,0.30
2018-01-14T03:29:30.508Z,0.40
2018-01-14T03:32:00.610Z,0.40
2018-01-14T03:34:29.291Z,0.30
2018-01-14T03:36:57.812Z,0.30
2018-01-14T03:39:27.083Z,0.30
2018-01-14T03:41:55.573Z,0.30
2018-01-14T03:44:24.062Z,0.40
2018-01-14T03:46:53.307Z,0.40
2018-01-14T03:49:21.821Z,0.30
2018-01-14T03:51:50.361Z,0.30
2018-01-14T03:54:18.832Z,0.20
2018-01-14T03:56:47.960Z,0.30
2018-01-14T03:59:16.445Z,0.20
2018-01-14T04:01:45.246Z,0.30
2018-01-14T04:04:13.908Z,0.30
2018-01-14T04:06:42.423Z,0.30
2018-01-14T04:09:11.706Z,0.30
2018-01-14T04:11:40.293Z,0.30
2018-01-14T04:14:08.795Z,0.40
2018-01-14T04:16:38.074Z,0.40
2018-01-14T04:19:06.462Z,0.40
2018-01-14T04:21:35.750Z,0.40
2018-01-14T04:24:04.287Z,0.30
2018-01-14T04:26:32.817Z,0.30
2018-01-14T04:29:01.332Z,0.30
2018-01-14T04:31:29.870Z,0.40
2018-01-14T04:33:58.385Z,0.40
2018-01-14T04:36:26.875Z,0.40
2018-01-14T04:38:55.375Z,0.40
2018-01-14T04:41:23.884Z,0.20
2018-01-14T04:43:52.358Z,0.20
2018-01-14T04:46:21.649Z,0.10
2018-01-14T04:48:50.176Z,0.20
2018-01-14T04:51:19.456Z,0.20
2018-01-14T04:53:48.834Z,0.20
2018-01-14T04:56:17.942Z,0.20
2018-01-14T04:58:46.457Z,0.20
2018-01-14T05:01:15.720Z,0.30
2018-01-14T05:03:44.211Z,0.30
2018-01-14T05:06:13.712Z,0.30
2018-01-14T05:08:42.215Z,0.30
2018-01-14T05:11:11.497Z,0.30
2018-01-14T05:13:39.998Z,0.30
2018-01-14T05:16:09.301Z,0.20
2018-01-14T05:18:38.592Z,0.10
2018-01-14T05:21:07.828Z,0.20
2018-01-14T05:23:36.525Z,0.10
2018-01-14T05:26:05.042Z,0.20
2018-01-14T05:28:33.515Z,0.10
2018-01-14T05:31:02.052Z,0.20
2018-01-14T05:33:30.531Z,0.20
2018-01-14T05:35:59.015Z,0.10
2018-01-14T05:38:27.537Z,0.20
2018-01-14T05:40:56.049Z,0.20
2018-01-14T05:43:24.584Z,0.20
2018-01-14T05:45:53.105Z,0.20
2018-01-14T05:48:22.376Z,0.10
2018-01-14T05:50:50.897Z,0.10
2018-01-14T05:53:19.421Z,0.20
2018-01-14T05:55:48.855Z,0.10
2018-01-14T05:58:18.734Z,0.10
2018-01-14T06:00:48.136Z,0.10
2018-01-14T06:03:17.463Z,0.20
2018-01-14T06:05:46.599Z,0.20
2018-01-14T06:08:14.946Z,0.20
2018-01-14T06:10:44.624Z,0.10
2018-01-14T06:13:13.173Z,0.10
2018-01-14T06:15:41.697Z,0.10
2018-01-14T06:18:10.171Z,0.10
2018-01-14T06:20:38.710Z,0.10
2018-01-14T06:23:07.226Z,0.00
2018-01-14T06:25:35.800Z,0.10
2018-01-14T06:28:04.276Z,0.00
2018-01-14T06:30:32.817Z,0.00
2018-01-14T06:33:01.347Z,0.00
2018-01-14T06:35:30.017Z,0.00
2018-01-14T06:37:58.536Z,0.10
2018-01-14T06:40:27.110Z,0.00
2018-01-14T06:42:55.661Z,0.00
2018-01-14T06:45:24.173Z,0.10
2018-01-14T06:47:52.646Z,0.10
2018-01-14T06:50:21.143Z,0.20
2018-01-14T06:52:50.439Z,0.00
2018-01-14T06:55:18.991Z,0.00
2018-01-14T06:57:47.593Z,0.20
2018-01-14T07:00:16.251Z,0.10
2018-01-14T07:02:44.728Z,0.10
2018-01-14T07:05:13.208Z,0.20
2018-01-14T07:07:41.881Z,0.20
2018-01-14T07:10:10.337Z,0.20
2018-01-14T07:12:38.854Z,0.20
2018-01-14T07:15:07.410Z,0.20
2018-01-14T07:17:35.925Z,0.20
2018-01-14T07:20:04.087Z,0.10
2018-01-14T07:22:32.626Z,0.20
2018-01-14T07:25:01.896Z,0.20
2018-01-14T07:27:30.361Z,0.20
2018-01-14T07:29:58.911Z,0.20
2018-01-14T07:32:27.380Z,0.20
2018-01-14T07:34:55.884Z,0.30
2018-01-14T07:37:24.409Z,0.40
2018-01-14T07:39:52.899Z,0.40
2018-01-14T07:42:22.213Z,0.30
2018-01-14T07:44:50.736Z,0.20
2018-01-14T07:47:19.215Z,0.20
2018-01-14T07:49:47.744Z,0.20
2018-01-14T07:52:17.180Z,0.30
2018-01-14T07:54:46.369Z,0.20
2018-01-14T07:57:14.877Z,0.20
2018-01-14T07:59:43.411Z,0.20
2018-01-14T08:02:12.807Z,0.20
2018-01-14T08:04:42.086Z,0.20
2018-01-14T08:07:10.610Z,0.20
2018-01-14T08:09:39.167Z,0.10
2018-01-14T08:12:08.444Z,0.10
2018-01-14T08:14:36.960Z,0.00
2018-01-14T08:17:06.260Z,0.00
2018-01-14T08:19:34.784Z,0.00
2018-01-14T08:22:03.277Z,0.10
2018-01-14T08:24:31.775Z,0.00
2018-01-14T08:27:00.300Z,0.00
2018-01-14T08:29:28.810Z,0.00
2018-01-14T08:31:57.319Z,0.00
2018-01-14T08:34:25.871Z,0.00
2018-01-14T08:36:54.351Z,0.00
2018-01-14T08:39:22.877Z,0.10
2018-01-14T08:41:52.136Z,0.10
2018-01-14T08:44:20.653Z,0.00
2018-01-14T08:46:49.940Z,0.10
2018-01-14T08:49:18.454Z,0.10
2018-01-14T08:51:47.615Z,0.20
2018-01-14T08:54:16.839Z,0.20
2018-01-14T08:56:46.795Z,0.20
2018-01-14T08:59:16.304Z,0.20
2018-01-14T09:01:50.831Z,0.20
2018-01-14T09:04:19.417Z,0.20
2018-01-14T09:06:48.821Z,0.10
2018-01-14T09:09:18.182Z,0.20
2018-01-14T09:11:46.676Z,0.20
2018-01-14T09:14:15.450Z,0.10
2018-01-14T09:16:44.032Z,0.20
2018-01-14T09:19:12.508Z,0.10
2018-01-14T09:21:41.024Z,0.20
2018-01-14T09:24:09.511Z,0.10
2018-01-14T09:26:38.016Z,0.10
2018-01-14T09:29:06.545Z,0.10
2018-01-14T09:31:35.108Z,0.00
2018-01-14T09:34:03.672Z,0.10
2018-01-14T09:36:32.920Z,0.20
2018-01-14T09:39:01.453Z,0.20
2018-01-14T09:41:29.981Z,0.20
2018-01-14T09:43:58.508Z,0.20
2018-01-14T09:46:27.795Z,0.30
2018-01-14T09:48:56.263Z,0.30
2018-01-14T09:51:24.758Z,0.30
2018-01-14T09:53:53.296Z,0.20
2018-01-14T09:56:21.803Z,0.20
2018-01-14T09:58:50.528Z,0.20
2018-01-14T10:01:19.042Z,0.20
2018-01-14T10:03:48.357Z,0.20
2018-01-14T10:06:17.295Z,0.20
2018-01-14T10:08:46.636Z,0.20
2018-01-14T10:11:15.474Z,0.20
2018-01-14T10:13:44.760Z,0.30
2018-01-14T10:16:16.385Z,0.40
2018-01-14T10:32:23.550Z,0.40
2018-01-14T10:34:56.432Z,0.20
2018-01-14T10:40:45.796Z,0.30
2018-01-14T10:46:06.980Z,0.40
2018-01-14T10:48:35.765Z,0.40
2018-01-14T10:51:04.292Z,0.50
2018-01-14T10:53:32.782Z,0.40
2018-01-14T10:56:01.403Z,0.30
2018-01-14T10:58:29.910Z,0.40
2018-01-14T11:00:58.281Z,0.40
2018-01-14T11:03:26.864Z,0.40
2018-01-14T11:05:55.564Z,0.40
2018-01-14T11:08:24.072Z,0.50
2018-01-14T11:10:52.602Z,0.60
2018-01-14T11:13:21.130Z,0.60
2018-01-14T11:15:49.793Z,0.60
2018-01-14T11:18:18.825Z,0.60
2018-01-14T11:20:49.023Z,0.40
2018-01-14T11:23:18.442Z,0.40
2018-01-14T11:25:47.977Z,0.50
2018-01-14T11:28:16.685Z,0.50
2018-01-14T11:30:45.580Z,0.50
2018-01-14T11:33:14.258Z,0.50
2018-01-14T11:35:42.770Z,0.50
2018-01-14T11:38:11.321Z,0.50
2018-01-14T11:40:39.891Z,0.50
2018-01-14T11:43:08.421Z,0.60
2018-01-14T11:45:36.912Z,0.70
2018-01-14T11:48:06.182Z,0.80
2018-01-14T11:50:34.650Z,0.70
2018-01-14T11:53:03.237Z,0.70
2018-01-14T11:55:31.802Z,0.70
2018-01-14T11:58:00.283Z,0.70
2018-01-14T12:00:29.082Z,0.70
2018-01-14T12:02:58.418Z,0.70
2018-01-14T12:05:27.744Z,0.60
2018-01-14T12:07:56.293Z,0.60
2018-01-14T12:10:25.787Z,0.60
2018-01-14T12:12:54.270Z,0.60
2018-01-14T12:15:22.775Z,0.60
2018-01-14T12:17:51.300Z,0.70
2018-01-14T12:20:19.767Z,0.70
2018-01-14T12:22:49.153Z,0.90
2018-01-14T12:25:18.370Z,1.00
2018-01-14T12:27:46.826Z,1.10
2018-01-14T12:30:15.951Z,1.30
2018-01-14T12:32:55.722Z,1.40
2018-01-14T12:35:24.271Z,1.40
2018-01-14T12:37:52.728Z,1.50
2018-01-14T12:40:21.242Z,1.50
2018-01-14T12:42:49.731Z,1.50
2018-01-14T12:45:19.129Z,1.50
2018-01-14T12:47:48.177Z,1.40
2018-01-14T12:50:16.767Z,1.50
2018-01-14T12:52:45.945Z,1.40
2018-01-14T12:55:14.429Z,1.40
2018-01-14T12:57:42.959Z,1.40
2018-01-14T13:00:11.458Z,1.40
2018-01-14T13:02:40.763Z,1.30
2018-01-14T13:05:10.021Z,1.30
2018-01-14T13:07:38.529Z,1.30
2018-01-14T13:10:07.041Z,1.30
2018-01-14T13:12:35.514Z,1.20
2018-01-14T13:15:04.754Z,1.20
2018-01-14T13:17:33.257Z,1.30
2018-01-14T13:20:01.774Z,1.10
2018-01-14T13:22:31.026Z,1.10
2018-01-14T13:25:00.290Z,1.20
2018-01-14T13:27:28.863Z,1.20
2018-01-14T13:29:57.506Z,1.10
2018-01-14T13:32:25.991Z,1.10
2018-01-14T13:34:54.496Z,1.10
2018-01-14T13:37:22.978Z,1.00
2018-01-14T13:39:52.225Z,1.00
2018-01-14T13:42:20.720Z,1.00
2018-01-14T13:44:49.269Z,1.00
2018-01-14T13:47:18.550Z,1.10
2018-01-14T13:49:47.227Z,1.10
2018-01-14T13:52:16.483Z,1.10
2018-01-14T13:54:44.949Z,1.00
2018-01-14T13:57:14.233Z,1.00
2018-01-14T13:59:42.700Z,1.00
2018-01-14T14:02:11.228Z,1.00
2018-01-14T14:04:39.729Z,0.90
2018-01-14T14:07:08.995Z,0.80
2018-01-14T14:09:37.691Z,0.90
2018-01-14T14:12:06.957Z,0.80
2018-01-14T14:14:35.614Z,0.90
2018-01-14T14:17:04.086Z,0.90
2018-01-14T14:19:32.596Z,0.90
2018-01-14T14:22:01.138Z,1.00
2018-01-14T14:24:29.651Z,1.10
2018-01-14T14:26:58.164Z,1.10
2018-01-14T14:29:26.688Z,1.00
2018-01-14T14:31:55.189Z,1.00
2018-01-14T14:34:23.702Z,1.00
2018-01-14T14:36:52.184Z,1.00
2018-01-14T14:39:20.663Z,1.00
2018-01-14T14:41:49.241Z,1.00
2018-01-14T14:44:18.099Z,1.00
2018-01-14T14:46:47.307Z,1.10
2018-01-14T14:49:16.219Z,1.10
2018-01-14T14:51:45.725Z,1.00
2018-01-14T14:54:14.207Z,1.00
2018-01-14T14:56:42.795Z,1.00
2018-01-14T14:59:12.077Z,0.90
2018-01-14T15:01:40.771Z,0.90
2018-01-14T15:04:10.107Z,0.90
2018-01-14T15:06:38.842Z,0.80
2018-01-14T15:09:07.340Z,0.80
2018-01-14T15:11:35.929Z,0.80
2018-01-14T15:14:05.233Z,0.80
2018-01-14T15:16:34.457Z,0.80
2018-01-14T15:19:02.969Z,0.80
2018-01-14T15:21:31.458Z,0.80
2018-01-14T15:23:59.981Z,0.70
2018-01-14T15:26:29.280Z,0.80
2018-01-14T15:28:57.782Z,0.70
2018-01-14T15:31:26.271Z,0.80
2018-01-14T15:33:54.778Z,0.90
2018-01-14T15:36:23.283Z,0.80
2018-01-14T15:38:52.557Z,0.80
2018-01-14T15:41:21.073Z,0.80
2018-01-14T15:43:50.344Z,0.80
2018-01-14T15:46:18.865Z,0.80
2018-01-14T15:48:47.384Z,0.90
2018-01-14T15:51:16.686Z,0.80
2018-01-14T15:53:45.156Z,0.80
2018-01-14T15:56:13.669Z,0.70
2018-01-14T15:58:42.141Z,0.60
2018-01-14T16:01:10.626Z,0.60
2018-01-14T16:03:39.170Z,0.60
2018-01-14T16:06:07.682Z,0.50
2018-01-14T16:08:36.158Z,0.30
2018-01-14T16:11:04.848Z,0.30
2018-01-14T16:13:33.353Z,0.40
2018-01-14T16:16:02.605Z,0.40
2018-01-14T16:18:31.123Z,0.50
2018-01-14T16:21:00.389Z,0.50
2018-01-14T16:23:28.920Z,0.50
2018-01-14T16:25:57.433Z,0.50
2018-01-14T16:28:25.952Z,0.60
2018-01-14T16:30:54.477Z,0.50
2018-01-14T16:33:23.046Z,0.50
2018-01-14T16:35:51.575Z,0.50
2018-01-14T16:38:20.215Z,0.50
2018-01-14T16:40:48.802Z,0.40
2018-01-14T16:43:17.309Z,0.30
2018-01-14T16:45:45.830Z,0.20
2018-01-14T16:48:15.076Z,0.30
2018-01-14T16:50:43.551Z,0.30
2018-01-14T16:53:12.306Z,0.30
2018-01-14T16:55:41.584Z,0.10
2018-01-14T16:58:10.811Z,0.10
2018-01-14T17:00:39.311Z,0.10
2018-01-14T17:03:07.849Z,0.20
2018-01-14T17:05:37.091Z,0.20
2018-01-14T17:08:05.570Z,0.20
2018-01-14T17:10:34.116Z,0.30
2018-01-14T17:13:03.386Z,0.20
2018-01-14T17:15:31.864Z,0.20
2018-01-14T17:18:00.588Z,0.20
2018-01-14T17:20:29.067Z,0.10
2018-01-14T17:22:57.580Z,0.10
2018-01-14T17:25:26.080Z,0.10
2018-01-14T17:27:54.543Z,0.00
2018-01-14T17:30:23.102Z,0.00
2018-01-14T17:32:51.619Z,0.10
2018-01-14T17:35:20.166Z,0.00
2018-01-14T17:37:49.439Z,0.10
2018-01-14T17:40:18.714Z,0.20
2018-01-14T17:42:47.979Z,0.10
2018-01-14T17:45:17.130Z,0.00
2018-01-14T17:47:46.928Z,0.10
2018-01-14T17:50:16.237Z,0.10
2018-01-14T17:52:46.155Z,0.00
2018-01-14T17:55:14.670Z,0.00
2018-01-14T17:57:42.959Z,0.00
2018-01-14T18:00:11.290Z,0.00
2018-01-14T18:02:39.853Z,0.10
2018-01-14T18:05:09.150Z,0.10
2018-01-14T18:07:37.814Z,0.10
2018-01-14T18:10:06.362Z,0.00
2018-01-14T18:12:34.842Z,-0.10
2018-01-14T18:15:03.339Z,-0.10
2018-01-14T18:17:31.844Z,0.00
2018-01-14T18:20:01.105Z,-0.10
2018-01-14T18:22:29.662Z,-0.10
2018-01-14T18:24:58.176Z,-0.10
2018-01-14T18:27:26.720Z,0.00
2018-01-14T18:29:55.216Z,-0.10
2018-01-14T18:32:23.761Z,-0.10
2018-01-14T18:34:53.005Z,-0.10
2018-01-14T18:37:21.545Z,-0.10
2018-01-14T18:39:50.127Z,-0.10
2018-01-14T18:42:18.901Z,-0.20
2018-01-14T18:44:48.226Z,-0.30
2018-01-14T18:47:17.378Z,0.20
2018-01-14T18:49:45.902Z,-0.30
2018-01-14T18:52:15.801Z,-0.30
2018-01-14T18:54:45.095Z,-0.30
2018-01-14T18:57:14.367Z,-0.30
2018-01-14T18:59:42.861Z,-0.30
2018-01-14T19:02:12.156Z,-0.30
2018-01-14T19:04:40.800Z,-0.30
2018-01-14T19:07:10.351Z,-0.30
2018-01-14T19:09:39.050Z,-0.30
2018-01-14T19:12:07.700Z,-0.30
2018-01-14T19:14:37.110Z,-0.30
2018-01-14T19:17:06.685Z,-0.30
2018-01-14T19:19:35.235Z,-0.40
2018-01-14T19:22:03.796Z,-0.30
2018-01-14T19:24:33.039Z,-0.40
2018-01-14T19:27:01.603Z,-0.40
2018-01-14T19:29:30.104Z,-0.40
2018-01-14T19:31:58.653Z,-0.40
2018-01-14T19:34:27.133Z,-0.50
2018-01-14T19:36:55.664Z,-0.50
2018-01-14T19:39:24.164Z,-0.50
2018-01-14T19:41:53.536Z,-0.50
2018-01-14T19:44:22.053Z,-0.60
2018-01-14T19:46:51.423Z,-0.60
2018-01-14T19:49:19.975Z,-0.60
2018-01-14T19:51:49.400Z,-0.60
2018-01-14T19:54:18.869Z,-0.60
2018-01-14T19:56:48.335Z,-0.60
2018-01-14T19:59:17.595Z,-0.60
2018-01-14T20:01:46.988Z,-0.70
2018-01-14T20:04:15.864Z,-0.70
2018-01-14T20:06:44.362Z,-0.70
2018-01-14T20:09:12.893Z,-0.70
2018-01-14T20:11:42.228Z,-0.80
2018-01-14T20:14:10.941Z,-0.80
2018-01-14T20:16:39.521Z,-0.80
2018-01-14T20:19:08.174Z,-0.80
2018-01-14T20:21:36.758Z,-0.80
2018-01-14T20:24:05.360Z,-0.80
2018-01-14T20:26:34.743Z,-0.80
2018-01-14T20:29:03.330Z,-0.80
2018-01-14T20:31:31.896Z,-0.90
2018-01-14T20:34:00.495Z,-0.90
2018-01-14T20:36:29.147Z,-0.90
2018-01-14T20:38:57.644Z,-0.90
2018-01-14T20:41:26.124Z,-0.90
2018-01-14T20:43:54.999Z,-0.90
2018-01-14T20:46:23.684Z,-0.90
2018-01-14T20:48:52.240Z,-1.00
2018-01-14T20:51:21.344Z,-1.00
2018-01-14T20:53:50.069Z,-1.00
2018-01-14T20:56:19.806Z,-1.00
2018-01-14T20:58:48.366Z,-1.00
2018-01-14T21:01:18.667Z,-1.00
2018-01-14T21:03:48.155Z,-1.00
2018-01-14T21:06:16.778Z,-1.00
2018-01-14T21:08:45.305Z,-1.00
2018-01-14T21:11:14.671Z,-1.00
2018-01-14T21:13:43.266Z,-1.00
2018-01-14T21:16:11.899Z,-1.00
2018-01-14T21:18:40.670Z,-1.00
2018-01-14T21:21:09.221Z,-1.00
2018-01-14T21:23:37.718Z,-1.00
2018-01-14T21:26:06.348Z,-1.00
2018-01-14T21:28:34.860Z,-1.00
2018-01-14T21:31:03.462Z,-1.00
2018-01-14T21:33:32.902Z,-1.00
2018-01-14T21:36:01.510Z,-1.00
2018-01-14T21:38:30.047Z,-1.00
2018-01-14T21:40:58.585Z,-1.00
2018-01-14T21:43:27.095Z,-1.00
2018-01-14T21:45:55.581Z,-1.00
2018-01-14T21:48:24.081Z,-1.00
2018-01-14T21:50:52.592Z,-1.10
2018-01-14T21:53:21.120Z,-1.10
2018-01-14T21:55:49.654Z,-1.10
2018-01-14T21:58:18.372Z,-1.10
2018-01-14T22:00:47.453Z,-1.10
2018-01-14T22:03:16.023Z,-1.10
2018-01-14T22:05:44.532Z,-1.00
2018-01-14T22:08:13.821Z,-1.00
2018-01-14T22:10:43.127Z,-1.00
2018-01-14T22:13:12.385Z,-1.00
2018-01-14T22:15:40.903Z,-1.00
2018-01-14T22:18:10.160Z,-0.90
2018-01-14T22:20:38.663Z,-0.90
2018-01-14T22:23:07.233Z,-0.90
2018-01-14T22:25:35.706Z,-0.90
2018-01-14T22:28:04.182Z,-0.90
2018-01-14T22:30:32.703Z,-0.90
2018-01-14T22:33:01.967Z,-0.90
2018-01-14T22:35:30.497Z,-0.90
2018-01-14T22:37:59.033Z,-0.90
2018-01-14T22:40:27.549Z,-0.90
2018-01-14T22:42:56.667Z,-0.80
2018-01-14T22:45:25.910Z,-0.80
2018-01-14T22:47:54.585Z,-0.80
2018-01-14T22:50:23.069Z,-0.80
2018-01-14T22:52:51.585Z,-0.80
2018-01-14T22:55:20.871Z,-0.80
2018-01-14T22:57:49.543Z,-0.80
2018-01-14T23:00:18.269Z,-0.80
2018-01-14T23:02:46.841Z,-0.80
2018-01-14T23:05:15.441Z,-0.80
2018-01-14T23:07:43.973Z,-0.80
2018-01-14T23:10:12.479Z,-0.80
2018-01-14T23:12:41.019Z,-0.80
2018-01-14T23:15:09.499Z,-0.80
2018-01-14T23:17:38.032Z,-0.70
2018-01-14T23:20:06.572Z,-0.70
2018-01-14T23:22:35.125Z,-0.70
2018-01-14T23:25:03.664Z,-0.70
2018-01-14T23:27:32.152Z,-0.70
2018-01-14T23:30:00.667Z,-0.80
2018-01-14T23:32:29.143Z,-0.80
2018-01-14T23:34:57.497Z,-0.60
2018-01-14T23:37:26.033Z,-0.60
2018-01-14T23:39:54.219Z,-0.60
2018-01-14T23:42:23.510Z,-0.60
2018-01-14T23:44:52.121Z,-0.60
2018-01-14T23:47:20.644Z,-0.70
2018-01-14T23:49:49.168Z,-0.60
2018-01-14T23:52:18.473Z,-0.60
2018-01-14T23:54:47.623Z,-0.60
2018-01-14T23:57:16.110Z,-0.60
2018-01-14T23:59:45.357Z,-0.70
